Hartford, Connecticut
Traffic Map
Current Weather Conditions
Hartford, Connecticut
Clear
Clear

Feels Like: 7°
Wind Chill: Ceiling: Unl
Heat Index: Visibility: 10mi
Dew Point: -6° Wind: 9mph
Humidity: 35% Direction: 50° (NE)
Pressure: 30.71in Gusts: 0mph
Raw Report DataKHFD 171753Z 05008KT 10SM CLR 09/M06 A3071 RMK AO2 SLP397 T00941056 10100 20006 56020
Traffic Incident Summary
Active as of:
Severity:
Category:
InformationThere was an issue retrieving the traffic information for this location. Please try a different location or try again shortly.
Advertisements
At Last! Intellicast now available for iPhone and Android